sensor_id;sensor_type;location;lat;lon;timestamp;temperature;humidity
680;DHT22;322;48.846;9.230;2022-11-15T00:00:44;10.40;99.90
680;DHT22;322;48.846;9.230;2022-11-15T00:03:13;10.50;99.90
680;DHT22;322;48.846;9.230;2022-11-15T00:05:40;10.50;99.90
680;DHT22;322;48.846;9.230;2022-11-15T00:08:07;10.50;99.90
680;DHT22;322;48.846;9.230;2022-11-15T00:10:34;10.40;99.90
680;DHT22;322;48.846;9.230;2022-11-15T00:13:04;10.40;99.90
680;DHT22;322;48.846;9.230;2022-11-15T00:15:31;10.40;99.90
680;DHT22;322;48.846;9.230;2022-11-15T00:17:59;10.40;99.90
680;DHT22;322;48.846;9.230;2022-11-15T00:20:26;10.40;99.90
680;DHT22;322;48.846;9.230;2022-11-15T00:22:53;10.40;99.90
680;DHT22;322;48.846;9.230;2022-11-15T00:25:19;10.40;99.90
680;DHT22;322;48.846;9.230;2022-11-15T00:27:46;10.40;99.90
680;DHT22;322;48.846;9.230;2022-11-15T00:30:13;10.40;99.90
680;DHT22;322;48.846;9.230;2022-11-15T00:32:40;10.40;99.90
680;DHT22;322;48.846;9.230;2022-11-15T00:35:08;10.40;99.90
680;DHT22;322;48.846;9.230;2022-11-15T00:37:35;10.40;99.90
680;DHT22;322;48.846;9.230;2022-11-15T00:40:02;10.40;99.90
680;DHT22;322;48.846;9.230;2022-11-15T00:42:29;10.40;99.90
680;DHT22;322;48.846;9.230;2022-11-15T00:44:56;10.50;99.90
680;DHT22;322;48.846;9.230;2022-11-15T00:47:23;10.40;99.90
680;DHT22;322;48.846;9.230;2022-11-15T00:49:49;10.40;99.90
680;DHT22;322;48.846;9.230;2022-11-15T00:52:18;10.40;99.90
680;DHT22;322;48.846;9.230;2022-11-15T00:54:44;10.40;99.90
680;DHT22;322;48.846;9.230;2022-11-15T00:57:11;10.30;99.90
680;DHT22;322;48.846;9.230;2022-11-15T00:59:38;10.30;99.90
680;DHT22;322;48.846;9.230;2022-11-15T01:02:05;10.30;99.90
680;DHT22;322;48.846;9.230;2022-11-15T01:04:31;10.30;99.90
680;DHT22;322;48.846;9.230;2022-11-15T01:06:58;10.20;99.90
680;DHT22;322;48.846;9.230;2022-11-15T01:09:26;10.20;99.90
680;DHT22;322;48.846;9.230;2022-11-15T01:11:53;10.10;99.90
680;DHT22;322;48.846;9.230;2022-11-15T01:14:20;10.00;99.90
680;DHT22;322;48.846;9.230;2022-11-15T01:16:47;9.80;99.90
680;DHT22;322;48.846;9.230;2022-11-15T01:19:14;9.70;99.90
680;DHT22;322;48.846;9.230;2022-11-15T01:21:40;9.60;99.90
680;DHT22;322;48.846;9.230;2022-11-15T01:24:08;9.50;99.90
680;DHT22;322;48.846;9.230;2022-11-15T01:26:38;9.50;99.90
680;DHT22;322;48.846;9.230;2022-11-15T01:29:05;9.40;99.90
680;DHT22;322;48.846;9.230;2022-11-15T01:31:32;9.30;99.90
680;DHT22;322;48.846;9.230;2022-11-15T01:33:58;9.20;99.90
680;DHT22;322;48.846;9.230;2022-11-15T01:36:25;9.00;99.90
680;DHT22;322;48.846;9.230;2022-11-15T01:38:53;9.00;99.90
680;DHT22;322;48.846;9.230;2022-11-15T01:41:23;9.00;99.90
680;DHT22;322;48.846;9.230;2022-11-15T01:43:54;9.00;99.90
680;DHT22;322;48.846;9.230;2022-11-15T01:46:29;9.00;99.90
680;DHT22;322;48.846;9.230;2022-11-15T01:48:59;9.00;99.90
680;DHT22;322;48.846;9.230;2022-11-15T01:51:29;8.90;99.90
680;DHT22;322;48.846;9.230;2022-11-15T01:54:00;8.90;99.90
680;DHT22;322;48.846;9.230;2022-11-15T01:56:31;8.80;99.90
680;DHT22;322;48.846;9.230;2022-11-15T01:59:03;8.90;99.90
680;DHT22;322;48.846;9.230;2022-11-15T02:01:31;8.90;99.90
680;DHT22;322;48.846;9.230;2022-11-15T02:04:02;8.90;99.90
680;DHT22;322;48.846;9.230;2022-11-15T02:06:32;8.90;99.90
680;DHT22;322;48.846;9.230;2022-11-15T02:09:00;8.90;99.90
680;DHT22;322;48.846;9.230;2022-11-15T02:11:28;8.90;99.90
680;DHT22;322;48.846;9.230;2022-11-15T02:13:55;8.90;99.90
680;DHT22;322;48.846;9.230;2022-11-15T02:16:31;9.00;99.90
680;DHT22;322;48.846;9.230;2022-11-15T02:19:12;9.10;99.90
680;DHT22;322;48.846;9.230;2022-11-15T02:21:45;9.20;99.90
680;DHT22;322;48.846;9.230;2022-11-15T02:24:39;9.30;99.90
680;DHT22;322;48.846;9.230;2022-11-15T02:27:34;9.30;99.90
680;DHT22;322;48.846;9.230;2022-11-15T02:30:20;9.30;99.90
680;DHT22;322;48.846;9.230;2022-11-15T02:32:51;9.30;99.90
680;DHT22;322;48.846;9.230;2022-11-15T02:35:28;9.30;99.90
680;DHT22;322;48.846;9.230;2022-11-15T02:37:58;9.30;99.90
680;DHT22;322;48.846;9.230;2022-11-15T02:40:34;9.30;99.90
680;DHT22;322;48.846;9.230;2022-11-15T02:43:09;9.40;99.90
680;DHT22;322;48.846;9.230;2022-11-15T02:46:01;9.40;99.90
680;DHT22;322;48.846;9.230;2022-11-15T02:48:31;9.30;99.90
680;DHT22;322;48.846;9.230;2022-11-15T02:50:59;9.30;99.90
680;DHT22;322;48.846;9.230;2022-11-15T02:53:27;9.30;99.90
680;DHT22;322;48.846;9.230;2022-11-15T02:55:55;9.20;99.90
680;DHT22;322;48.846;9.230;2022-11-15T03:01:29;9.20;99.90
680;DHT22;322;48.846;9.230;2022-11-15T03:04:07;9.20;99.90
680;DHT22;322;48.846;9.230;2022-11-15T03:06:44;9.20;99.90
680;DHT22;322;48.846;9.230;2022-11-15T03:09:21;9.20;99.90
680;DHT22;322;48.846;9.230;2022-11-15T03:11:58;9.20;99.90
680;DHT22;322;48.846;9.230;2022-11-15T03:14:29;9.20;99.90
680;DHT22;322;48.846;9.230;2022-11-15T03:17:05;9.10;99.90
680;DHT22;322;48.846;9.230;2022-11-15T03:19:40;9.10;99.90
680;DHT22;322;48.846;9.230;2022-11-15T03:22:12;8.90;99.90
680;DHT22;322;48.846;9.230;2022-11-15T03:24:41;8.80;99.90
680;DHT22;322;48.846;9.230;2022-11-15T03:27:12;8.70;99.90
680;DHT22;322;48.846;9.230;2022-11-15T03:29:46;8.70;99.90
680;DHT22;322;48.846;9.230;2022-11-15T03:32:18;8.60;99.90
680;DHT22;322;48.846;9.230;2022-11-15T03:34:49;8.50;99.90
680;DHT22;322;48.846;9.230;2022-11-15T03:37:21;8.40;99.90
680;DHT22;322;48.846;9.230;2022-11-15T03:39:48;8.30;99.90
680;DHT22;322;48.846;9.230;2022-11-15T03:42:25;8.30;99.90
680;DHT22;322;48.846;9.230;2022-11-15T03:44:58;8.30;99.90
680;DHT22;322;48.846;9.230;2022-11-15T03:47:32;8.30;99.90
680;DHT22;322;48.846;9.230;2022-11-15T03:50:02;8.30;99.90
680;DHT22;322;48.846;9.230;2022-11-15T03:52:32;8.20;99.90
680;DHT22;322;48.846;9.230;2022-11-15T03:55:01;8.20;99.90
680;DHT22;322;48.846;9.230;2022-11-15T03:57:29;8.20;99.90
680;DHT22;322;48.846;9.230;2022-11-15T03:59:56;8.20;99.90
680;DHT22;322;48.846;9.230;2022-11-15T04:02:23;8.10;99.90
680;DHT22;322;48.846;9.230;2022-11-15T04:04:51;8.10;99.90
680;DHT22;322;48.846;9.230;2022-11-15T04:07:17;8.00;99.90
680;DHT22;322;48.846;9.230;2022-11-15T04:09:44;8.00;99.90
680;DHT22;322;48.846;9.230;2022-11-15T04:12:31;8.10;99.90
680;DHT22;322;48.846;9.230;2022-11-15T04:14:59;8.30;99.90
680;DHT22;322;48.846;9.230;2022-11-15T04:17:37;8.30;99.90
680;DHT22;322;48.846;9.230;2022-11-15T04:20:08;8.40;99.90
680;DHT22;322;48.846;9.230;2022-11-15T04:22:54;8.50;99.90
680;DHT22;322;48.846;9.230;2022-11-15T04:25:38;8.60;99.90
680;DHT22;322;48.846;9.230;2022-11-15T04:28:05;8.60;99.90
680;DHT22;322;48.846;9.230;2022-11-15T04:30:32;8.70;99.90
680;DHT22;322;48.846;9.230;2022-11-15T04:32:58;8.70;99.90
680;DHT22;322;48.846;9.230;2022-11-15T04:35:27;8.70;99.90
680;DHT22;322;48.846;9.230;2022-11-15T04:37:54;8.70;99.90
680;DHT22;322;48.846;9.230;2022-11-15T04:40:21;8.70;99.90
680;DHT22;322;48.846;9.230;2022-11-15T04:42:47;8.70;99.90
680;DHT22;322;48.846;9.230;2022-11-15T04:45:14;8.70;99.90
680;DHT22;322;48.846;9.230;2022-11-15T04:47:43;8.70;99.90
680;DHT22;322;48.846;9.230;2022-11-15T04:50:10;8.70;99.90
680;DHT22;322;48.846;9.230;2022-11-15T04:52:40;8.70;99.90
680;DHT22;322;48.846;9.230;2022-11-15T04:55:07;8.70;99.90
680;DHT22;322;48.846;9.230;2022-11-15T04:57:34;8.70;99.90
680;DHT22;322;48.846;9.230;2022-11-15T05:00:02;8.70;99.90
680;DHT22;322;48.846;9.230;2022-11-15T05:02:29;8.60;99.90
680;DHT22;322;48.846;9.230;2022-11-15T05:05:16;8.60;99.90
680;DHT22;322;48.846;9.230;2022-11-15T05:07:43;8.50;99.90
680;DHT22;322;48.846;9.230;2022-11-15T05:10:10;8.50;99.90
680;DHT22;322;48.846;9.230;2022-11-15T05:12:37;8.40;99.90
680;DHT22;322;48.846;9.230;2022-11-15T05:15:05;8.30;99.90
680;DHT22;322;48.846;9.230;2022-11-15T05:17:32;8.40;99.90
680;DHT22;322;48.846;9.230;2022-11-15T05:19:59;8.30;99.90
680;DHT22;322;48.846;9.230;2022-11-15T05:22:26;8.20;99.90
680;DHT22;322;48.846;9.230;2022-11-15T05:24:54;8.20;99.90
680;DHT22;322;48.846;9.230;2022-11-15T05:27:21;8.10;99.90
680;DHT22;322;48.846;9.230;2022-11-15T05:29:48;8.00;99.90
680;DHT22;322;48.846;9.230;2022-11-15T05:32:15;7.90;99.90
680;DHT22;322;48.846;9.230;2022-11-15T05:34:43;7.80;99.90
680;DHT22;322;48.846;9.230;2022-11-15T05:37:10;7.80;99.90
680;DHT22;322;48.846;9.230;2022-11-15T05:39:37;7.70;99.90
680;DHT22;322;48.846;9.230;2022-11-15T05:42:09;7.70;99.90
680;DHT22;322;48.846;9.230;2022-11-15T05:44:36;7.70;99.90
680;DHT22;322;48.846;9.230;2022-11-15T05:47:06;7.80;99.90
680;DHT22;322;48.846;9.230;2022-11-15T05:49:37;7.80;99.90
680;DHT22;322;48.846;9.230;2022-11-15T05:52:07;7.90;99.90
680;DHT22;322;48.846;9.230;2022-11-15T05:54:36;8.00;99.90
680;DHT22;322;48.846;9.230;2022-11-15T05:57:05;8.00;99.90
680;DHT22;322;48.846;9.230;2022-11-15T05:59:33;8.10;99.90
680;DHT22;322;48.846;9.230;2022-11-15T06:02:01;8.10;99.90
680;DHT22;322;48.846;9.230;2022-11-15T06:04:27;8.00;99.90
680;DHT22;322;48.846;9.230;2022-11-15T06:06:54;8.10;99.90
680;DHT22;322;48.846;9.230;2022-11-15T06:09:21;8.10;99.90
680;DHT22;322;48.846;9.230;2022-11-15T06:11:48;8.10;99.90
680;DHT22;322;48.846;9.230;2022-11-15T06:14:16;8.10;99.90
680;DHT22;322;48.846;9.230;2022-11-15T06:16:43;8.10;99.90
680;DHT22;322;48.846;9.230;2022-11-15T06:19:10;8.10;99.90
680;DHT22;322;48.846;9.230;2022-11-15T06:21:37;8.10;99.90
680;DHT22;322;48.846;9.230;2022-11-15T06:24:05;8.10;99.90
680;DHT22;322;48.846;9.230;2022-11-15T06:26:32;8.20;99.90
680;DHT22;322;48.846;9.230;2022-11-15T06:28:59;8.20;99.90
680;DHT22;322;48.846;9.230;2022-11-15T06:31:27;8.20;99.90
680;DHT22;322;48.846;9.230;2022-11-15T06:33:53;8.20;99.90
680;DHT22;322;48.846;9.230;2022-11-15T06:36:20;8.20;99.90
680;DHT22;322;48.846;9.230;2022-11-15T06:38:47;8.20;99.90
680;DHT22;322;48.846;9.230;2022-11-15T06:41:14;8.20;99.90
680;DHT22;322;48.846;9.230;2022-11-15T06:43:42;8.20;99.90
680;DHT22;322;48.846;9.230;2022-11-15T06:46:09;8.20;99.90
680;DHT22;322;48.846;9.230;2022-11-15T06:48:37;8.30;99.90
680;DHT22;322;48.846;9.230;2022-11-15T06:51:05;8.30;99.90
680;DHT22;322;48.846;9.230;2022-11-15T06:53:33;8.30;99.90
680;DHT22;322;48.846;9.230;2022-11-15T06:56:00;8.40;99.90
680;DHT22;322;48.846;9.230;2022-11-15T06:58:27;8.50;99.90
680;DHT22;322;48.846;9.230;2022-11-15T07:00:58;8.50;99.90
680;DHT22;322;48.846;9.230;2022-11-15T07:03:25;8.50;99.90
680;DHT22;322;48.846;9.230;2022-11-15T07:05:54;8.40;99.90
680;DHT22;322;48.846;9.230;2022-11-15T07:08:23;8.50;99.90
680;DHT22;322;48.846;9.230;2022-11-15T07:10:50;8.50;99.90
680;DHT22;322;48.846;9.230;2022-11-15T07:13:16;8.60;99.90
680;DHT22;322;48.846;9.230;2022-11-15T07:15:43;8.60;99.90
680;DHT22;322;48.846;9.230;2022-11-15T07:18:10;8.60;99.90
680;DHT22;322;48.846;9.230;2022-11-15T07:20:37;8.70;99.90
680;DHT22;322;48.846;9.230;2022-11-15T07:23:06;8.80;99.90
680;DHT22;322;48.846;9.230;2022-11-15T07:25:33;8.90;99.90
680;DHT22;322;48.846;9.230;2022-11-15T07:28:00;8.90;99.90
680;DHT22;322;48.846;9.230;2022-11-15T07:30:28;8.90;99.90
680;DHT22;322;48.846;9.230;2022-11-15T07:32:55;9.00;99.90
680;DHT22;322;48.846;9.230;2022-11-15T07:35:22;8.90;99.90
680;DHT22;322;48.846;9.230;2022-11-15T07:37:56;9.00;99.90
680;DHT22;322;48.846;9.230;2022-11-15T07:40:25;9.00;99.90
680;DHT22;322;48.846;9.230;2022-11-15T07:42:52;9.20;99.90
680;DHT22;322;48.846;9.230;2022-11-15T07:45:19;9.40;99.90
680;DHT22;322;48.846;9.230;2022-11-15T07:47:46;9.50;99.90
680;DHT22;322;48.846;9.230;2022-11-15T07:50:13;9.70;99.90
680;DHT22;322;48.846;9.230;2022-11-15T07:52:40;10.00;99.90
680;DHT22;322;48.846;9.230;2022-11-15T07:55:07;10.30;99.90
680;DHT22;322;48.846;9.230;2022-11-15T07:57:36;10.60;99.90
680;DHT22;322;48.846;9.230;2022-11-15T08:00:04;10.90;99.90
680;DHT22;322;48.846;9.230;2022-11-15T08:02:31;11.20;99.90
680;DHT22;322;48.846;9.230;2022-11-15T08:04:58;11.30;99.90
680;DHT22;322;48.846;9.230;2022-11-15T08:07:28;11.30;99.90
680;DHT22;322;48.846;9.230;2022-11-15T08:09:55;11.30;99.90
680;DHT22;322;48.846;9.230;2022-11-15T08:12:22;11.30;99.90
680;DHT22;322;48.846;9.230;2022-11-15T08:14:50;11.40;99.90
680;DHT22;322;48.846;9.230;2022-11-15T08:17:17;11.60;99.90
680;DHT22;322;48.846;9.230;2022-11-15T08:19:43;11.80;99.90
680;DHT22;322;48.846;9.230;2022-11-15T08:22:10;12.00;99.90
680;DHT22;322;48.846;9.230;2022-11-15T08:24:37;12.30;99.90
680;DHT22;322;48.846;9.230;2022-11-15T08:27:04;12.40;99.90
680;DHT22;322;48.846;9.230;2022-11-15T08:29:30;12.50;99.90
680;DHT22;322;48.846;9.230;2022-11-15T08:31:59;12.50;99.90
680;DHT22;322;48.846;9.230;2022-11-15T08:34:25;12.50;99.90
680;DHT22;322;48.846;9.230;2022-11-15T08:36:52;12.50;99.90
680;DHT22;322;48.846;9.230;2022-11-15T08:39:19;12.50;99.90
680;DHT22;322;48.846;9.230;2022-11-15T08:41:46;12.50;99.90
680;DHT22;322;48.846;9.230;2022-11-15T08:44:12;12.60;99.90
680;DHT22;322;48.846;9.230;2022-11-15T08:46:39;12.60;99.90
680;DHT22;322;48.846;9.230;2022-11-15T08:49:07;12.70;99.90
680;DHT22;322;48.846;9.230;2022-11-15T08:51:34;12.70;99.90
680;DHT22;322;48.846;9.230;2022-11-15T08:54:01;12.70;99.90
680;DHT22;322;48.846;9.230;2022-11-15T08:56:28;12.70;99.90
680;DHT22;322;48.846;9.230;2022-11-15T08:58:54;12.80;99.90
680;DHT22;322;48.846;9.230;2022-11-15T09:01:21;12.90;99.90
680;DHT22;322;48.846;9.230;2022-11-15T09:03:48;13.10;99.90
680;DHT22;322;48.846;9.230;2022-11-15T09:06:16;13.30;99.90
680;DHT22;322;48.846;9.230;2022-11-15T09:08:43;13.50;99.90
680;DHT22;322;48.846;9.230;2022-11-15T09:11:11;13.70;99.90
680;DHT22;322;48.846;9.230;2022-11-15T09:13:38;14.00;99.90
680;DHT22;322;48.846;9.230;2022-11-15T09:16:05;14.40;99.90
680;DHT22;322;48.846;9.230;2022-11-15T09:18:32;14.70;99.90
680;DHT22;322;48.846;9.230;2022-11-15T09:21:00;14.90;99.90
680;DHT22;322;48.846;9.230;2022-11-15T09:23:29;15.00;99.90
680;DHT22;322;48.846;9.230;2022-11-15T09:25:59;15.10;99.90
680;DHT22;322;48.846;9.230;2022-11-15T09:28:26;15.30;99.90
680;DHT22;322;48.846;9.230;2022-11-15T09:30:56;15.70;99.90
680;DHT22;322;48.846;9.230;2022-11-15T09:33:24;15.90;99.90
680;DHT22;322;48.846;9.230;2022-11-15T09:35:51;16.00;99.90
680;DHT22;322;48.846;9.230;2022-11-15T09:38:17;16.10;99.90
680;DHT22;322;48.846;9.230;2022-11-15T09:40:50;16.30;99.90
680;DHT22;322;48.846;9.230;2022-11-15T09:43:32;16.40;99.90
680;DHT22;322;48.846;9.230;2022-11-15T09:46:10;16.50;99.90
680;DHT22;322;48.846;9.230;2022-11-15T09:48:48;16.70;99.90
680;DHT22;322;48.846;9.230;2022-11-15T09:51:23;16.80;99.90
680;DHT22;322;48.846;9.230;2022-11-15T09:53:57;17.20;99.90
680;DHT22;322;48.846;9.230;2022-11-15T09:56:28;17.40;99.90
680;DHT22;322;48.846;9.230;2022-11-15T09:59:04;17.80;99.90
680;DHT22;322;48.846;9.230;2022-11-15T10:01:47;18.10;99.90
680;DHT22;322;48.846;9.230;2022-11-15T10:04:17;18.20;99.90
680;DHT22;322;48.846;9.230;2022-11-15T10:06:56;18.50;99.90
680;DHT22;322;48.846;9.230;2022-11-15T10:09:26;18.50;99.90
680;DHT22;322;48.846;9.230;2022-11-15T10:11:56;18.70;99.90
680;DHT22;322;48.846;9.230;2022-11-15T10:14:25;18.70;99.90
680;DHT22;322;48.846;9.230;2022-11-15T10:17:18;18.60;99.90
680;DHT22;322;48.846;9.230;2022-11-15T10:19:55;18.30;99.90
680;DHT22;322;48.846;9.230;2022-11-15T10:22:27;18.00;99.90
680;DHT22;322;48.846;9.230;2022-11-15T10:25:09;17.80;99.90
680;DHT22;322;48.846;9.230;2022-11-15T10:27:39;17.70;99.90
680;DHT22;322;48.846;9.230;2022-11-15T10:30:11;17.60;99.90
680;DHT22;322;48.846;9.230;2022-11-15T10:32:39;17.40;99.90
680;DHT22;322;48.846;9.230;2022-11-15T10:35:21;17.20;99.90
680;DHT22;322;48.846;9.230;2022-11-15T10:37:49;16.90;99.90
680;DHT22;322;48.846;9.230;2022-11-15T10:40:19;16.70;99.90
680;DHT22;322;48.846;9.230;2022-11-15T10:42:48;16.70;99.90
680;DHT22;322;48.846;9.230;2022-11-15T10:45:27;16.60;99.90
680;DHT22;322;48.846;9.230;2022-11-15T10:47:55;16.60;99.90
680;DHT22;322;48.846;9.230;2022-11-15T10:50:43;16.50;99.90
680;DHT22;322;48.846;9.230;2022-11-15T10:53:16;16.40;99.90
680;DHT22;322;48.846;9.230;2022-11-15T10:55:48;16.30;99.90
680;DHT22;322;48.846;9.230;2022-11-15T10:58:27;16.30;99.90
680;DHT22;322;48.846;9.230;2022-11-15T11:01:09;16.20;99.90
680;DHT22;322;48.846;9.230;2022-11-15T11:03:37;16.10;99.90
680;DHT22;322;48.846;9.230;2022-11-15T11:06:07;16.20;99.90
680;DHT22;322;48.846;9.230;2022-11-15T11:08:35;16.20;99.90
680;DHT22;322;48.846;9.230;2022-11-15T11:11:03;16.30;99.90
680;DHT22;322;48.846;9.230;2022-11-15T11:13:33;16.30;99.90
680;DHT22;322;48.846;9.230;2022-11-15T11:16:15;16.40;99.90
680;DHT22;322;48.846;9.230;2022-11-15T11:18:49;16.30;99.90
680;DHT22;322;48.846;9.230;2022-11-15T11:21:22;16.20;99.90
680;DHT22;322;48.846;9.230;2022-11-15T11:23:53;16.10;99.90
680;DHT22;322;48.846;9.230;2022-11-15T11:26:37;16.00;99.90
680;DHT22;322;48.846;9.230;2022-11-15T11:29:21;15.90;99.90
680;DHT22;322;48.846;9.230;2022-11-15T11:31:57;15.80;99.90
680;DHT22;322;48.846;9.230;2022-11-15T11:34:36;15.90;99.90
680;DHT22;322;48.846;9.230;2022-11-15T11:37:11;16.00;99.90
680;DHT22;322;48.846;9.230;2022-11-15T11:39:45;16.10;99.90
680;DHT22;322;48.846;9.230;2022-11-15T11:42:26;16.30;99.90
680;DHT22;322;48.846;9.230;2022-11-15T11:45:04;16.40;99.90
680;DHT22;322;48.846;9.230;2022-11-15T11:47:37;16.60;99.90
680;DHT22;322;48.846;9.230;2022-11-15T11:50:13;16.80;99.90
680;DHT22;322;48.846;9.230;2022-11-15T11:52:54;16.90;99.90
680;DHT22;322;48.846;9.230;2022-11-15T11:55:26;17.00;99.90
680;DHT22;322;48.846;9.230;2022-11-15T11:58:02;17.10;99.90
680;DHT22;322;48.846;9.230;2022-11-15T12:00:34;17.30;99.90
680;DHT22;322;48.846;9.230;2022-11-15T12:03:11;17.50;99.90
680;DHT22;322;48.846;9.230;2022-11-15T12:05:40;17.60;99.90
680;DHT22;322;48.846;9.230;2022-11-15T12:08:29;17.80;99.90
680;DHT22;322;48.846;9.230;2022-11-15T12:11:03;17.70;99.90
680;DHT22;322;48.846;9.230;2022-11-15T12:13:31;17.70;99.90
680;DHT22;322;48.846;9.230;2022-11-15T12:16:11;17.80;99.90
680;DHT22;322;48.846;9.230;2022-11-15T12:18:42;17.80;99.90
680;DHT22;322;48.846;9.230;2022-11-15T12:21:15;17.70;99.90
680;DHT22;322;48.846;9.230;2022-11-15T12:23:46;17.60;99.90
680;DHT22;322;48.846;9.230;2022-11-15T12:26:20;17.50;99.90
680;DHT22;322;48.846;9.230;2022-11-15T12:28:52;17.60;99.90
680;DHT22;322;48.846;9.230;2022-11-15T12:31:24;17.60;99.90
680;DHT22;322;48.846;9.230;2022-11-15T12:33:55;17.60;99.90
680;DHT22;322;48.846;9.230;2022-11-15T12:36:38;17.50;99.90
680;DHT22;322;48.846;9.230;2022-11-15T12:39:06;17.50;99.90
680;DHT22;322;48.846;9.230;2022-11-15T12:41:35;17.20;99.90
680;DHT22;322;48.846;9.230;2022-11-15T12:44:03;17.00;99.90
680;DHT22;322;48.846;9.230;2022-11-15T12:47:01;16.90;99.90
680;DHT22;322;48.846;9.230;2022-11-15T12:49:45;16.80;99.90
680;DHT22;322;48.846;9.230;2022-11-15T12:52:13;16.70;99.90
680;DHT22;322;48.846;9.230;2022-11-15T12:54:57;16.60;99.90
680;DHT22;322;48.846;9.230;2022-11-15T12:57:41;16.60;99.90
680;DHT22;322;48.846;9.230;2022-11-15T13:03:24;16.50;99.90
680;DHT22;322;48.846;9.230;2022-11-15T13:06:05;16.50;99.90
680;DHT22;322;48.846;9.230;2022-11-15T13:08:45;16.50;99.90
680;DHT22;322;48.846;9.230;2022-11-15T13:11:42;16.40;99.90
680;DHT22;322;48.846;9.230;2022-11-15T13:14:46;16.40;99.90
680;DHT22;322;48.846;9.230;2022-11-15T13:17:35;16.40;99.90
680;DHT22;322;48.846;9.230;2022-11-15T13:20:24;16.30;99.90
680;DHT22;322;48.846;9.230;2022-11-15T13:22:58;16.30;99.90
680;DHT22;322;48.846;9.230;2022-11-15T13:25:57;16.30;99.90
680;DHT22;322;48.846;9.230;2022-11-15T13:28:31;16.10;99.90
680;DHT22;322;48.846;9.230;2022-11-15T13:30:59;16.10;99.90
680;DHT22;322;48.846;9.230;2022-11-15T13:33:31;16.00;99.90
680;DHT22;322;48.846;9.230;2022-11-15T13:36:01;15.80;99.90
680;DHT22;322;48.846;9.230;2022-11-15T13:38:31;15.70;99.90
680;DHT22;322;48.846;9.230;2022-11-15T13:40:59;15.70;99.90
680;DHT22;322;48.846;9.230;2022-11-15T13:43:32;15.60;99.90
680;DHT22;322;48.846;9.230;2022-11-15T13:46:21;15.60;99.90
680;DHT22;322;48.846;9.230;2022-11-15T13:48:53;15.60;99.90
680;DHT22;322;48.846;9.230;2022-11-15T13:51:26;15.60;99.90
680;DHT22;322;48.846;9.230;2022-11-15T13:53:56;15.70;99.90
680;DHT22;322;48.846;9.230;2022-11-15T13:56:25;15.70;99.90
680;DHT22;322;48.846;9.230;2022-11-15T13:58:53;15.60;99.90
680;DHT22;322;48.846;9.230;2022-11-15T14:01:21;15.70;99.90
680;DHT22;322;48.846;9.230;2022-11-15T14:03:54;15.70;99.90
680;DHT22;322;48.846;9.230;2022-11-15T14:06:24;15.60;99.90
680;DHT22;322;48.846;9.230;2022-11-15T14:09:29;15.50;99.90
680;DHT22;322;48.846;9.230;2022-11-15T14:11:58;15.40;99.90
680;DHT22;322;48.846;9.230;2022-11-15T14:14:26;15.40;99.90
680;DHT22;322;48.846;9.230;2022-11-15T14:16:55;15.30;99.90
680;DHT22;322;48.846;9.230;2022-11-15T14:19:37;15.20;99.90
680;DHT22;322;48.846;9.230;2022-11-15T14:22:17;14.80;99.90
680;DHT22;322;48.846;9.230;2022-11-15T14:24:47;14.50;99.90
680;DHT22;322;48.846;9.230;2022-11-15T14:27:29;14.10;99.90
680;DHT22;322;48.846;9.230;2022-11-15T14:29:56;13.90;99.90
680;DHT22;322;48.846;9.230;2022-11-15T14:32:24;13.70;99.90
680;DHT22;322;48.846;9.230;2022-11-15T14:34:55;13.60;99.90
680;DHT22;322;48.846;9.230;2022-11-15T14:37:25;13.50;99.90
680;DHT22;322;48.846;9.230;2022-11-15T14:39:53;13.40;99.90
680;DHT22;322;48.846;9.230;2022-11-15T14:42:21;13.30;99.90
680;DHT22;322;48.846;9.230;2022-11-15T14:44:48;13.20;99.90
680;DHT22;322;48.846;9.230;2022-11-15T14:47:15;13.00;99.90
680;DHT22;322;48.846;9.230;2022-11-15T14:49:42;13.10;99.90
680;DHT22;322;48.846;9.230;2022-11-15T14:52:26;13.00;99.90
680;DHT22;322;48.846;9.230;2022-11-15T14:54:54;12.90;99.90
680;DHT22;322;48.846;9.230;2022-11-15T14:57:21;12.90;99.90
680;DHT22;322;48.846;9.230;2022-11-15T14:59:48;12.90;99.90
680;DHT22;322;48.846;9.230;2022-11-15T15:02:17;12.90;99.90
680;DHT22;322;48.846;9.230;2022-11-15T15:04:45;12.90;99.90
680;DHT22;322;48.846;9.230;2022-11-15T15:07:12;12.80;99.90
680;DHT22;322;48.846;9.230;2022-11-15T15:09:40;12.80;99.90
680;DHT22;322;48.846;9.230;2022-11-15T15:12:14;12.60;99.90
680;DHT22;322;48.846;9.230;2022-11-15T15:14:42;12.60;99.90
680;DHT22;322;48.846;9.230;2022-11-15T15:17:09;12.50;99.90
680;DHT22;322;48.846;9.230;2022-11-15T15:19:36;12.50;99.90
680;DHT22;322;48.846;9.230;2022-11-15T15:22:02;12.50;99.90
680;DHT22;322;48.846;9.230;2022-11-15T15:24:29;12.50;99.90
680;DHT22;322;48.846;9.230;2022-11-15T15:26:57;12.40;99.90
680;DHT22;322;48.846;9.230;2022-11-15T15:29:24;12.40;99.90
680;DHT22;322;48.846;9.230;2022-11-15T15:31:51;12.40;99.90
680;DHT22;322;48.846;9.230;2022-11-15T15:34:18;12.30;99.90
680;DHT22;322;48.846;9.230;2022-11-15T15:36:44;12.30;99.90
680;DHT22;322;48.846;9.230;2022-11-15T15:39:11;12.30;99.90
680;DHT22;322;48.846;9.230;2022-11-15T15:41:39;12.30;99.90
680;DHT22;322;48.846;9.230;2022-11-15T15:44:07;12.20;99.90
680;DHT22;322;48.846;9.230;2022-11-15T15:46:34;12.20;99.90
680;DHT22;322;48.846;9.230;2022-11-15T15:49:00;12.20;99.90
680;DHT22;322;48.846;9.230;2022-11-15T15:51:27;12.20;99.90
680;DHT22;322;48.846;9.230;2022-11-15T15:53:54;12.10;99.90
680;DHT22;322;48.846;9.230;2022-11-15T15:56:22;12.00;99.90
680;DHT22;322;48.846;9.230;2022-11-15T15:58:50;12.00;99.90
680;DHT22;322;48.846;9.230;2022-11-15T16:01:19;12.00;99.90
680;DHT22;322;48.846;9.230;2022-11-15T16:03:46;12.00;99.90
680;DHT22;322;48.846;9.230;2022-11-15T16:06:40;12.00;99.90
680;DHT22;322;48.846;9.230;2022-11-15T16:09:12;12.00;99.90
680;DHT22;322;48.846;9.230;2022-11-15T16:11:40;12.00;99.90
680;DHT22;322;48.846;9.230;2022-11-15T16:14:07;12.00;99.90
680;DHT22;322;48.846;9.230;2022-11-15T16:16:36;12.00;99.90
680;DHT22;322;48.846;9.230;2022-11-15T16:19:03;11.90;99.90
680;DHT22;322;48.846;9.230;2022-11-15T16:21:30;11.90;99.90
680;DHT22;322;48.846;9.230;2022-11-15T16:23:57;11.90;99.90
680;DHT22;322;48.846;9.230;2022-11-15T16:26:26;12.00;99.90
680;DHT22;322;48.846;9.230;2022-11-15T16:28:53;12.00;99.90
680;DHT22;322;48.846;9.230;2022-11-15T16:31:20;12.00;99.90
680;DHT22;322;48.846;9.230;2022-11-15T16:33:49;12.10;99.90
680;DHT22;322;48.846;9.230;2022-11-15T16:36:20;12.10;99.90
680;DHT22;322;48.846;9.230;2022-11-15T16:38:47;12.20;99.90
680;DHT22;322;48.846;9.230;2022-11-15T16:41:14;12.20;99.90
680;DHT22;322;48.846;9.230;2022-11-15T16:43:44;12.30;99.90
680;DHT22;322;48.846;9.230;2022-11-15T16:46:17;12.20;99.90
680;DHT22;322;48.846;9.230;2022-11-15T16:48:45;12.30;99.90
680;DHT22;322;48.846;9.230;2022-11-15T16:51:13;12.30;99.90
680;DHT22;322;48.846;9.230;2022-11-15T16:53:41;12.30;99.90
680;DHT22;322;48.846;9.230;2022-11-15T16:56:23;12.30;99.90
680;DHT22;322;48.846;9.230;2022-11-15T16:58:50;12.30;99.90
680;DHT22;322;48.846;9.230;2022-11-15T17:01:22;12.30;99.90
680;DHT22;322;48.846;9.230;2022-11-15T17:03:49;12.30;99.90
680;DHT22;322;48.846;9.230;2022-11-15T17:06:18;12.30;99.90
680;DHT22;322;48.846;9.230;2022-11-15T17:08:45;12.30;99.90
680;DHT22;322;48.846;9.230;2022-11-15T17:11:14;12.30;99.90